Palm Springs, California
Current Conditions -  °F | °C
As of 9:53 AM on Tuesday 21 Oct 2014 (Local Time) from KPSP Reporting Station
Clear Clear  
Wind Chill: 27°   Ceiling: Unl
Heat Index: 27°   Visibility: 10mi
Dew Point: 10°   Wind: 3mph
Humidity: 34%   Direction: 180°S
Pressure: 29.86"   Gusts: NA
Location:  33.82°N, 116.51°W
Report Text: KPSP 211653Z 18003KT 10SM CLR 27/10 A2986 RMK AO2 SLP108 T02720100 $
Loading
Personal Weather Stations






























Interactive Weather Map
Tropical Storm Tracking
New forecast layout! Learn more

10-Day Weather Forecast

Advertisements
Track Severe Weather on mobile